createdAt,value
2023-04-20T00:02:27.625Z,19.78
2023-04-20T00:04:56.230Z,19.79
2023-04-20T00:07:24.963Z,19.76
2023-04-20T00:09:53.230Z,19.74
2023-04-20T00:12:22.579Z,19.68
2023-04-20T00:14:50.920Z,19.59
2023-04-20T00:17:19.729Z,19.61
2023-04-20T00:19:48.183Z,19.62
2023-04-20T00:22:16.840Z,19.63
2023-04-20T00:24:45.247Z,19.59
2023-04-20T00:27:13.522Z,19.62
2023-04-20T00:29:41.911Z,19.62
2023-04-20T00:32:10.209Z,19.65
2023-04-20T00:34:38.476Z,19.67
2023-04-20T00:37:07.125Z,19.63
2023-04-20T00:39:35.913Z,19.66
2023-04-20T00:42:06.753Z,19.69
2023-04-20T00:44:35.733Z,19.71
2023-04-20T00:47:03.947Z,19.70
2023-04-20T00:49:34.712Z,19.71
2023-04-20T00:52:03.117Z,19.67
2023-04-20T00:54:32.700Z,19.67
2023-04-20T00:57:01.475Z,19.59
2023-04-20T00:59:29.869Z,19.61
2023-04-20T01:01:58.663Z,19.63
2023-04-20T01:04:27.255Z,19.63
2023-04-20T01:06:56.208Z,19.62
2023-04-20T01:09:24.548Z,19.59
2023-04-20T01:11:52.814Z,19.58
2023-04-20T01:14:21.414Z,19.59
2023-04-20T01:16:49.820Z,19.59
2023-04-20T01:19:18.482Z,19.59
2023-04-20T01:21:47.685Z,19.56
2023-04-20T01:24:17.677Z,19.53
2023-04-20T01:26:46.058Z,19.52
2023-04-20T01:29:14.440Z,19.53
2023-04-20T01:31:44.377Z,19.52
2023-04-20T01:34:12.762Z,19.48
2023-04-20T01:36:41.403Z,19.42
2023-04-20T01:39:10.274Z,19.47
2023-04-20T01:41:39.332Z,19.44
2023-04-20T01:44:07.829Z,19.47
2023-04-20T01:46:40.232Z,19.47
2023-04-20T01:49:08.965Z,19.51
2023-04-20T01:51:37.964Z,19.53
2023-04-20T01:54:06.428Z,19.54
2023-04-20T01:56:36.329Z,19.56
2023-04-20T01:59:04.719Z,19.52
2023-04-20T02:01:33.051Z,19.51
2023-04-20T02:04:02.065Z,19.48
2023-04-20T02:06:31.448Z,19.40
2023-04-20T02:08:59.727Z,19.38
2023-04-20T02:11:28.568Z,19.38
2023-04-20T02:13:57.614Z,19.33
2023-04-20T02:16:29.510Z,19.35
2023-04-20T02:18:58.095Z,19.36
2023-04-20T02:21:26.670Z,19.41
2023-04-20T02:23:55.007Z,19.39
2023-04-20T02:26:23.895Z,19.38
2023-04-20T02:28:52.325Z,19.41
2023-04-20T02:31:20.720Z,19.32
2023-04-20T02:33:50.133Z,19.29
2023-04-20T02:36:18.553Z,19.33
2023-04-20T02:38:46.850Z,19.28
2023-04-20T02:41:15.155Z,19.27
2023-04-20T02:43:43.405Z,19.28
2023-04-20T02:46:12.346Z,19.31
2023-04-20T02:48:40.759Z,19.28
2023-04-20T02:51:09.346Z,19.24
2023-04-20T02:53:43.390Z,19.20
2023-04-20T02:56:21.890Z,19.22
2023-04-20T02:58:54.545Z,19.16
2023-04-20T03:01:32.706Z,19.20
2023-04-20T03:04:13.063Z,19.20
2023-04-20T03:06:47.673Z,19.17
2023-04-20T03:09:19.257Z,19.20
2023-04-20T03:12:05.488Z,19.19
2023-04-20T03:15:00.070Z,19.20
2023-04-20T03:17:57.511Z,19.27
2023-04-20T03:20:26.681Z,19.30
2023-04-20T03:22:55.692Z,19.30
2023-04-20T03:25:25.881Z,19.33
2023-04-20T03:28:00.909Z,19.34
2023-04-20T03:30:30.627Z,19.29
2023-04-20T03:33:09.171Z,19.30
2023-04-20T03:35:39.632Z,19.26
2023-04-20T03:38:08.334Z,19.26
2023-04-20T03:40:38.525Z,19.29
2023-04-20T03:43:06.883Z,19.31
2023-04-20T03:45:35.183Z,19.34
2023-04-20T03:48:04.209Z,19.33
2023-04-20T03:50:33.171Z,19.33
2023-04-20T03:53:01.627Z,19.36
2023-04-20T03:55:30.948Z,19.34
2023-04-20T03:58:03.670Z,19.35
2023-04-20T04:00:39.504Z,19.35
2023-04-20T04:03:08.608Z,19.39
2023-04-20T04:05:37.958Z,19.43
2023-04-20T04:08:06.871Z,19.47
2023-04-20T04:10:35.332Z,19.47
2023-04-20T04:13:03.734Z,19.50
2023-04-20T04:15:32.890Z,19.44
2023-04-20T04:18:04.806Z,19.42
2023-04-20T04:20:33.469Z,19.47
2023-04-20T04:23:02.049Z,19.50
2023-04-20T04:25:42.672Z,19.52
2023-04-20T04:28:14.895Z,19.51
2023-04-20T04:30:57.670Z,19.54
2023-04-20T04:33:26.498Z,19.47
2023-04-20T04:35:55.436Z,19.39
2023-04-20T04:38:24.567Z,19.37
2023-04-20T04:40:54.257Z,19.32
2023-04-20T04:43:24.526Z,19.35
2023-04-20T04:46:11.092Z,19.42
2023-04-20T04:48:43.497Z,19.42
2023-04-20T04:51:12.278Z,19.42
2023-04-20T04:53:40.561Z,19.31
2023-04-20T04:56:09.431Z,19.23
2023-04-20T04:58:39.086Z,19.20
2023-04-20T05:01:07.722Z,19.19
2023-04-20T05:03:36.421Z,19.21
2023-04-20T05:06:05.112Z,19.27
2023-04-20T05:08:34.458Z,19.31
2023-04-20T05:11:02.986Z,19.33
2023-04-20T05:13:31.391Z,19.34
2023-04-20T05:15:59.723Z,19.32
2023-04-20T05:18:28.052Z,19.38
2023-04-20T05:20:56.565Z,19.43
2023-04-20T05:23:25.549Z,19.44
2023-04-20T05:25:53.793Z,19.46
2023-04-20T05:28:22.763Z,19.45
2023-04-20T05:30:51.064Z,19.43
2023-04-20T05:33:19.607Z,19.42
2023-04-20T05:35:49.328Z,19.39
2023-04-20T05:38:17.977Z,19.34
2023-04-20T05:40:46.384Z,19.23
2023-04-20T05:43:15.012Z,19.13
2023-04-20T05:45:43.675Z,19.05
2023-04-20T05:48:12.122Z,19.06
2023-04-20T05:50:40.596Z,18.94
2023-04-20T05:53:09.274Z,18.80
2023-04-20T05:55:37.633Z,18.74
2023-04-20T05:58:06.402Z,18.66
2023-04-20T06:00:35.440Z,18.61
2023-04-20T06:03:04.155Z,18.50
2023-04-20T06:05:34.195Z,18.41
2023-04-20T06:08:02.539Z,18.44
2023-04-20T06:10:32.707Z,18.43
2023-04-20T06:13:01.524Z,18.49
2023-04-20T06:15:29.988Z,18.51
2023-04-20T06:17:58.579Z,18.53
2023-04-20T06:20:27.282Z,18.53
2023-04-20T06:22:56.309Z,18.50
2023-04-20T06:25:24.815Z,18.49
2023-04-20T06:27:53.374Z,18.45
2023-04-20T06:30:21.880Z,18.47
2023-04-20T06:32:50.828Z,18.53
2023-04-20T06:35:19.675Z,18.65
2023-04-20T06:37:48.272Z,18.72
2023-04-20T06:40:16.894Z,18.85
2023-04-20T06:42:45.856Z,18.83
2023-04-20T06:45:14.363Z,18.91
2023-04-20T06:47:42.770Z,18.93
2023-04-20T06:50:11.535Z,18.90
2023-04-20T06:52:40.556Z,18.93
2023-04-20T06:55:09.502Z,19.07
2023-04-20T06:57:41.060Z,19.13
2023-04-20T07:00:10.833Z,19.15
2023-04-20T07:02:43.641Z,19.21
2023-04-20T07:05:12.463Z,19.21
2023-04-20T07:07:41.870Z,19.26
2023-04-20T07:10:11.622Z,19.31
2023-04-20T07:12:42.804Z,19.43
2023-04-20T07:15:12.505Z,19.60
2023-04-20T07:17:42.481Z,19.67
2023-04-20T07:20:11.275Z,19.69
2023-04-20T07:22:39.780Z,19.63
2023-04-20T07:25:09.165Z,19.58
2023-04-20T07:27:38.923Z,19.61
2023-04-20T07:30:09.036Z,19.60
2023-04-20T07:32:37.911Z,19.59
2023-04-20T07:35:06.675Z,19.59
2023-04-20T07:37:36.076Z,19.59
2023-04-20T07:40:07.035Z,19.59
2023-04-20T07:42:37.492Z,19.61
2023-04-20T07:45:09.370Z,19.61
2023-04-20T07:47:38.428Z,19.63
2023-04-20T07:50:08.305Z,19.66
2023-04-20T07:52:37.567Z,19.67
2023-04-20T07:55:08.428Z,19.64
2023-04-20T07:57:37.123Z,19.70
2023-04-20T08:00:07.443Z,19.77
2023-04-20T08:04:51.262Z,18.82
2023-04-20T08:07:19.937Z,19.95
2023-04-20T08:09:48.405Z,19.92
2023-04-20T08:12:16.838Z,19.84
2023-04-20T08:14:45.683Z,19.85
2023-04-20T08:17:14.212Z,19.85
2023-04-20T08:19:44.660Z,19.88
2023-04-20T08:22:14.394Z,19.77
2023-04-20T08:24:42.764Z,19.81
2023-04-20T08:27:11.117Z,19.68
2023-04-20T08:29:40.061Z,19.62
2023-04-20T08:32:12.801Z,19.60
2023-04-20T08:34:41.213Z,19.61
2023-04-20T08:37:09.968Z,19.59
2023-04-20T08:39:39.275Z,19.55
2023-04-20T08:42:07.854Z,19.46
2023-04-20T08:44:36.082Z,19.36
2023-04-20T08:47:04.473Z,19.28
2023-04-20T08:49:33.749Z,19.17
2023-04-20T08:52:02.104Z,19.11
2023-04-20T08:54:30.576Z,19.11
2023-04-20T08:56:59.963Z,19.10
2023-04-20T08:59:28.308Z,19.15
2023-04-20T09:01:56.885Z,19.07
2023-04-20T09:04:27.183Z,19.03
2023-04-20T09:06:56.666Z,19.04
2023-04-20T09:09:25.903Z,19.03
2023-04-20T09:12:07.899Z,18.94
2023-04-20T09:14:45.355Z,18.93
2023-04-20T09:17:15.607Z,18.96
2023-04-20T09:19:44.904Z,18.94
2023-04-20T09:22:13.230Z,18.92
2023-04-20T09:24:42.824Z,18.89
2023-04-20T09:27:18.143Z,18.92
2023-04-20T09:30:00.388Z,18.92
2023-04-20T09:32:29.881Z,18.89
2023-04-20T09:34:58.519Z,18.93
2023-04-20T09:37:27.124Z,18.89
2023-04-20T09:39:56.185Z,18.91
2023-04-20T09:42:24.478Z,18.91
2023-04-20T09:44:52.916Z,18.80
2023-04-20T09:47:21.630Z,18.87
2023-04-20T09:49:50.326Z,18.91
2023-04-20T09:52:19.048Z,18.92
2023-04-20T09:54:47.638Z,18.90
2023-04-20T09:57:16.510Z,18.79
2023-04-20T09:59:46.885Z,18.79
2023-04-20T10:02:15.412Z,18.86
2023-04-20T10:04:57.290Z,18.87
2023-04-20T10:07:27.186Z,18.88
2023-04-20T10:10:09.997Z,18.76
2023-04-20T10:12:55.714Z,18.88
2023-04-20T10:15:25.112Z,18.96
2023-04-20T10:17:53.698Z,19.06
2023-04-20T10:20:22.917Z,19.11
2023-04-20T10:22:54.977Z,19.16
2023-04-20T10:25:24.633Z,19.20
2023-04-20T10:27:57.793Z,19.25
2023-04-20T10:30:26.951Z,19.35
2023-04-20T10:33:04.774Z,19.35
2023-04-20T10:35:45.704Z,19.40
2023-04-20T10:38:14.717Z,19.47
2023-04-20T10:40:43.226Z,19.35
2023-04-20T10:43:24.304Z,19.29
2023-04-20T10:45:53.588Z,19.27
2023-04-20T10:48:22.322Z,19.27
2023-04-20T10:50:50.835Z,19.30
2023-04-20T10:53:22.830Z,19.30
2023-04-20T10:56:01.297Z,19.35
2023-04-20T10:58:29.827Z,19.41
2023-04-20T11:01:02.286Z,19.44
2023-04-20T11:03:31.601Z,19.54
2023-04-20T11:06:01.925Z,19.44
2023-04-20T11:08:40.569Z,19.52
2023-04-20T11:11:20.728Z,19.40
2023-04-20T11:13:49.221Z,19.55
2023-04-20T11:16:18.724Z,19.69
2023-04-20T11:18:54.607Z,19.75
2023-04-20T11:21:22.961Z,19.74
2023-04-20T11:23:51.654Z,19.75
2023-04-20T11:26:20.040Z,19.76
2023-04-20T11:28:56.191Z,19.72
2023-04-20T11:31:27.270Z,19.64
2023-04-20T11:33:55.856Z,19.56
2023-04-20T11:36:24.896Z,19.46
2023-04-20T11:38:53.254Z,19.39
2023-04-20T11:41:21.994Z,19.33
2023-04-20T11:43:51.455Z,19.21
2023-04-20T11:46:20.745Z,19.19
2023-04-20T11:48:49.871Z,19.16
2023-04-20T11:51:18.206Z,19.16
2023-04-20T11:53:46.840Z,19.14
2023-04-20T11:56:15.452Z,19.10
2023-04-20T11:58:44.002Z,19.15
2023-04-20T12:01:13.399Z,19.10
2023-04-20T12:03:42.029Z,19.05
2023-04-20T12:06:11.138Z,19.12
2023-04-20T12:08:39.583Z,19.20
2023-04-20T12:11:08.149Z,19.18
2023-04-20T12:13:37.014Z,19.17
2023-04-20T12:16:05.805Z,19.15
2023-04-20T12:18:34.342Z,19.19
2023-04-20T12:21:02.770Z,19.23
2023-04-20T12:23:31.458Z,19.25
2023-04-20T12:25:59.978Z,19.28
2023-04-20T12:28:28.349Z,19.40
2023-04-20T12:30:56.765Z,19.44
2023-04-20T12:33:25.216Z,19.47
2023-04-20T12:35:54.438Z,19.45
2023-04-20T12:38:22.960Z,19.43
2023-04-20T12:40:51.713Z,19.44
2023-04-20T12:43:20.004Z,19.46
2023-04-20T12:45:48.817Z,19.50
2023-04-20T12:48:20.715Z,19.53
2023-04-20T12:50:49.850Z,19.54
2023-04-20T12:53:18.317Z,19.62
2023-04-20T12:55:46.822Z,19.71
2023-04-20T12:58:16.370Z,19.76
2023-04-20T13:00:45.044Z,19.77
2023-04-20T13:03:13.685Z,19.75
2023-04-20T13:05:42.649Z,19.81
2023-04-20T13:08:11.484Z,19.87
2023-04-20T13:10:40.195Z,19.89
2023-04-20T13:13:12.055Z,19.95
2023-04-20T13:15:41.074Z,20.00
2023-04-20T13:18:13.831Z,19.97
2023-04-20T13:20:42.270Z,20.01
2023-04-20T13:23:10.803Z,19.92
2023-04-20T13:25:39.264Z,19.84
2023-04-20T13:28:08.211Z,19.91
2023-04-20T13:30:38.201Z,19.86
2023-04-20T13:33:07.114Z,19.82
2023-04-20T13:35:36.499Z,19.81
2023-04-20T13:38:05.188Z,19.80
2023-04-20T13:40:34.490Z,19.76
2023-04-20T13:43:02.973Z,19.75
2023-04-20T13:45:31.706Z,19.81
2023-04-20T13:48:00.139Z,19.84
2023-04-20T13:50:28.652Z,19.81
2023-04-20T13:52:56.893Z,19.85
2023-04-20T13:55:26.907Z,19.80
2023-04-20T13:57:55.529Z,19.79
2023-04-20T14:00:24.108Z,19.87
2023-04-20T14:02:52.594Z,19.88
2023-04-20T14:05:21.251Z,19.87
2023-04-20T14:07:49.777Z,19.88
2023-04-20T14:10:18.189Z,19.90
2023-04-20T14:12:47.015Z,19.84
2023-04-20T14:15:15.622Z,19.83
2023-04-20T14:17:44.053Z,19.79
2023-04-20T14:20:12.781Z,19.80
2023-04-20T14:22:43.856Z,19.82
2023-04-20T14:25:12.373Z,19.83
2023-04-20T14:27:40.940Z,19.89
2023-04-20T14:30:10.183Z,19.90
2023-04-20T14:32:39.013Z,19.90
2023-04-20T14:35:09.364Z,19.84
2023-04-20T14:37:37.653Z,19.80
2023-04-20T14:40:07.936Z,19.73
2023-04-20T14:42:36.573Z,19.65
2023-04-20T14:45:05.638Z,19.72
2023-04-20T14:47:34.122Z,19.71
2023-04-20T14:50:02.540Z,19.80
2023-04-20T14:52:31.294Z,19.88
2023-04-20T14:54:59.809Z,19.91
2023-04-20T14:57:28.923Z,19.95
2023-04-20T14:59:57.521Z,20.00
2023-04-20T15:02:26.160Z,20.04
2023-04-20T15:04:57.382Z,20.02
2023-04-20T15:07:28.052Z,20.08
2023-04-20T15:09:56.401Z,20.12
2023-04-20T15:12:24.790Z,20.11
2023-04-20T15:14:53.491Z,20.14
2023-04-20T15:17:21.824Z,20.19
2023-04-20T15:19:50.316Z,20.26
2023-04-20T15:22:19.169Z,20.25
2023-04-20T15:24:47.617Z,20.29
2023-04-20T15:27:17.294Z,20.35
2023-04-20T15:29:45.807Z,20.37
2023-04-20T15:32:14.526Z,20.46
2023-04-20T15:34:43.189Z,20.52
2023-04-20T15:37:11.597Z,20.57
2023-04-20T15:39:40.105Z,20.60
2023-04-20T15:42:08.698Z,20.68
2023-04-20T15:44:37.551Z,20.69
2023-04-20T15:47:05.967Z,20.73
2023-04-20T15:49:37.411Z,20.81
2023-04-20T15:52:05.662Z,20.88
2023-04-20T15:54:34.616Z,20.96
2023-04-20T15:57:03.984Z,20.99
2023-04-20T15:59:32.856Z,21.04
2023-04-20T16:02:01.357Z,21.06
2023-04-20T16:04:30.165Z,21.00
2023-04-20T16:06:58.779Z,20.97
2023-04-20T16:09:27.128Z,20.97
2023-04-20T16:11:55.691Z,20.96
2023-04-20T16:14:24.273Z,20.93
2023-04-20T16:16:52.832Z,20.93
2023-04-20T16:19:21.167Z,20.93
2023-04-20T16:21:49.494Z,20.95
2023-04-20T16:24:18.139Z,20.93
2023-04-20T16:26:46.919Z,20.96
2023-04-20T16:29:15.275Z,20.95
2023-04-20T16:31:43.810Z,20.95
2023-04-20T16:34:12.194Z,20.95
2023-04-20T16:36:41.084Z,20.95
2023-04-20T16:39:10.318Z,20.97
2023-04-20T16:41:38.618Z,20.92
2023-04-20T16:44:07.066Z,20.89
2023-04-20T16:46:35.884Z,20.83
2023-04-20T16:49:04.147Z,20.85
2023-04-20T16:51:33.506Z,20.86
2023-04-20T16:54:02.071Z,20.83
2023-04-20T16:56:30.321Z,20.78
2023-04-20T16:58:58.632Z,20.77
2023-04-20T17:01:27.006Z,20.74
2023-04-20T17:03:55.479Z,20.76
2023-04-20T17:06:24.074Z,20.75
2023-04-20T17:08:55.491Z,20.74
2023-04-20T17:11:23.967Z,20.68
2023-04-20T17:13:53.022Z,20.64
2023-04-20T17:16:22.060Z,20.64
2023-04-20T17:18:52.152Z,20.65
2023-04-20T17:21:20.734Z,20.64
2023-04-20T17:23:49.151Z,20.63
2023-04-20T17:26:17.604Z,20.59
2023-04-20T17:28:46.597Z,20.57
2023-04-20T17:31:15.271Z,20.55
2023-04-20T17:33:45.132Z,20.57
2023-04-20T17:36:13.529Z,20.53
2023-04-20T17:38:43.372Z,20.51
2023-04-20T17:41:12.083Z,20.54
2023-04-20T17:43:41.223Z,20.52
2023-04-20T17:46:09.583Z,20.48
2023-04-20T17:48:37.961Z,20.42
2023-04-20T17:51:06.496Z,20.36
2023-04-20T17:53:34.828Z,20.33
2023-04-20T17:56:03.792Z,20.30
2023-04-20T17:58:32.536Z,20.26
2023-04-20T18:01:01.114Z,20.20
2023-04-20T18:03:29.546Z,20.14
2023-04-20T18:05:59.121Z,20.09
2023-04-20T18:08:29.456Z,20.04
2023-04-20T18:10:57.667Z,19.99
2023-04-20T18:13:26.436Z,19.99
2023-04-20T18:15:54.811Z,19.90
2023-04-20T18:18:23.182Z,19.84
2023-04-20T18:20:51.962Z,19.88
2023-04-20T18:23:20.427Z,19.87
2023-04-20T18:25:48.691Z,19.78
2023-04-20T18:28:16.938Z,19.68
2023-04-20T18:30:45.267Z,19.60
2023-04-20T18:33:15.585Z,19.54
2023-04-20T18:35:44.640Z,19.54
2023-04-20T18:38:13.023Z,19.50
2023-04-20T18:40:41.882Z,19.52
2023-04-20T18:43:10.619Z,19.56
2023-04-20T18:45:39.276Z,19.58
2023-04-20T18:48:07.820Z,19.55
2023-04-20T18:50:36.377Z,19.59
2023-04-20T18:53:05.387Z,19.55
2023-04-20T18:55:33.803Z,19.49
2023-04-20T18:58:02.183Z,19.44
2023-04-20T19:00:31.118Z,19.47
2023-04-20T19:02:59.596Z,19.49
2023-04-20T19:05:28.061Z,19.49
2023-04-20T19:07:56.565Z,19.50
2023-04-20T19:10:25.887Z,19.47
2023-04-20T19:12:55.743Z,19.43
2023-04-20T19:15:25.936Z,19.36
2023-04-20T19:17:57.743Z,19.28
2023-04-20T19:20:26.449Z,19.23
2023-04-20T19:22:54.926Z,19.23
2023-04-20T19:25:23.513Z,19.18
2023-04-20T19:27:52.219Z,19.13
2023-04-20T19:30:20.788Z,19.11
2023-04-20T19:32:49.432Z,19.08
2023-04-20T19:35:17.848Z,19.01
2023-04-20T19:37:46.810Z,18.96
2023-04-20T19:40:15.175Z,18.95
2023-04-20T19:42:43.513Z,18.96
2023-04-20T19:45:11.863Z,18.98
2023-04-20T19:47:40.296Z,18.96
2023-04-20T19:50:09.017Z,18.98
2023-04-20T19:52:37.704Z,18.97
2023-04-20T19:55:06.623Z,18.95
2023-04-20T19:57:35.125Z,18.91
2023-04-20T20:00:04.930Z,18.91
2023-04-20T20:02:41.891Z,18.95
2023-04-20T20:05:10.672Z,18.92
2023-04-20T20:07:38.944Z,18.89
2023-04-20T20:10:08.011Z,18.87
2023-04-20T20:12:36.778Z,18.92
2023-04-20T20:15:05.742Z,18.99
2023-04-20T20:17:34.678Z,19.04
2023-04-20T20:21:16.108Z,18.23
2023-04-20T20:23:44.681Z,19.47
2023-04-20T20:26:13.107Z,19.49
2023-04-20T20:28:41.535Z,19.43
2023-04-20T20:31:10.179Z,19.43
2023-04-20T20:33:38.400Z,19.37
2023-04-20T20:36:07.093Z,19.36
2023-04-20T20:38:35.829Z,19.33
2023-04-20T20:41:06.804Z,19.25
2023-04-20T20:43:35.202Z,19.18
2023-04-20T20:46:03.649Z,19.04
2023-04-20T20:48:31.914Z,18.93
2023-04-20T20:51:00.291Z,18.90
2023-04-20T20:53:28.909Z,18.88
2023-04-20T20:55:57.443Z,18.81
2023-04-20T20:58:25.925Z,18.82
2023-04-20T21:00:54.352Z,18.85
2023-04-20T21:03:23.560Z,18.83
2023-04-20T21:05:52.190Z,18.80
2023-04-20T21:08:20.877Z,18.79
2023-04-20T21:10:49.441Z,18.83
2023-04-20T21:13:19.745Z,18.84
2023-04-20T21:15:48.250Z,18.76
2023-04-20T21:18:16.789Z,18.71
2023-04-20T21:20:45.046Z,18.64
2023-04-20T21:23:13.601Z,18.60
2023-04-20T21:25:41.882Z,18.62
2023-04-20T21:28:11.052Z,18.59
2023-04-20T21:30:39.488Z,18.53
2023-04-20T21:33:07.821Z,18.51
2023-04-20T21:35:36.641Z,18.49
2023-04-20T21:38:05.044Z,18.47
2023-04-20T21:40:34.394Z,18.39
2023-04-20T21:43:02.979Z,18.33
2023-04-20T21:45:31.352Z,18.31
2023-04-20T21:47:59.645Z,18.28
2023-04-20T21:50:28.805Z,18.28
2023-04-20T21:52:57.193Z,18.25
2023-04-20T21:55:25.606Z,18.19
2023-04-20T21:57:54.035Z,18.15
2023-04-20T22:00:22.848Z,18.08
2023-04-20T22:02:51.899Z,17.98
2023-04-20T22:05:20.456Z,17.86
2023-04-20T22:07:49.320Z,17.85
2023-04-20T22:10:17.583Z,17.88
2023-04-20T22:12:46.649Z,17.85
2023-04-20T22:15:15.287Z,17.77
2023-04-20T22:17:47.904Z,17.73
2023-04-20T22:20:17.174Z,17.77
2023-04-20T22:22:46.002Z,17.72
2023-04-20T22:25:14.235Z,17.76
2023-04-20T22:27:42.698Z,17.72
2023-04-20T22:30:11.561Z,17.69
2023-04-20T22:32:41.249Z,17.67
2023-04-20T22:35:10.422Z,17.68
2023-04-20T22:37:38.806Z,17.69
2023-04-20T22:40:08.122Z,17.65
2023-04-20T22:42:36.721Z,17.56
2023-04-20T22:45:05.726Z,17.55
2023-04-20T22:47:35.258Z,17.58
2023-04-20T22:50:04.005Z,17.57
2023-04-20T22:52:32.592Z,17.58
2023-04-20T22:55:01.027Z,17.58
2023-04-20T22:57:29.703Z,17.62
2023-04-20T22:59:57.948Z,17.63
2023-04-20T23:02:27.056Z,17.69
2023-04-20T23:04:56.011Z,17.71
2023-04-20T23:07:24.344Z,17.69
2023-04-20T23:09:53.925Z,17.63
2023-04-20T23:12:22.689Z,17.60
2023-04-20T23:14:50.962Z,17.57
2023-04-20T23:17:19.302Z,17.60
2023-04-20T23:19:47.914Z,17.60
2023-04-20T23:22:16.682Z,17.63
2023-04-20T23:24:45.639Z,17.58
2023-04-20T23:27:14.073Z,17.47
2023-04-20T23:29:42.346Z,17.42
2023-04-20T23:32:11.080Z,17.45
2023-04-20T23:34:39.758Z,17.45
2023-04-20T23:37:08.160Z,17.44
2023-04-20T23:39:37.791Z,17.45
2023-04-20T23:42:06.490Z,17.44
2023-04-20T23:44:35.510Z,17.40
2023-04-20T23:47:04.336Z,17.33
2023-04-20T23:49:32.647Z,17.32
2023-04-20T23:52:01.243Z,17.29
2023-04-20T23:54:31.237Z,17.19
2023-04-20T23:57:01.412Z,17.11
2023-04-20T23:59:29.838Z,17.09
